Time;durP1;ratioP1;P1;durP2;ratioP2;P2;SDS_P1;SDS_P2;PMS_P1;PMS_P2;Temp;Humidity;BMP_temperature;BMP_pressure;BME280_temperature;BME280_humidity;BME280_pressure;Samples;Min_cycle;Max_cycle;Signal;HPM_P1;HPM_P2
2024/01/18 00:00:36;;;;;;;11.18;4.95;;;19.70;50.60;;;;;;5052366;28;20029;-58
2024/01/18 00:03:02;;;;;;;11.80;4.90;;;19.70;50.40;;;;;;5052294;28;20036;-58
2024/01/18 00:05:28;;;;;;;9.55;4.95;;;19.70;50.90;;;;;;5052300;28;20377;-58
2024/01/18 00:07:54;;;;;;;9.35;5.07;;;19.60;50.70;;;;;;5052334;28;20029;-58
2024/01/18 00:10:26;;;;;;;9.32;4.38;;;19.60;50.90;;;;;;5052364;28;20021;-56
2024/01/18 00:12:53;;;;;;;9.18;4.45;;;19.60;50.60;;;;;;5051929;28;20052;-57
2024/01/18 00:15:18;;;;;;;8.60;4.60;;;19.70;50.40;;;;;;5052091;28;20025;-58
2024/01/18 00:17:44;;;;;;;9.70;4.30;;;19.60;50.70;;;;;;5052195;28;20558;-57
2024/01/18 00:20:10;;;;;;;13.30;4.43;;;19.60;50.60;;;;;;5052125;28;20036;-58
2024/01/18 00:22:36;;;;;;;12.13;4.88;;;19.60;50.60;;;;;;5052113;28;20076;-58
2024/01/18 00:25:02;;;;;;;16.00;4.57;;;19.60;50.60;;;;;;5051916;28;20072;-58
2024/01/18 00:27:28;;;;;;;11.43;4.50;;;19.60;50.70;;;;;;5034133;28;20076;-54
2024/01/18 00:29:53;;;;;;;10.68;4.50;;;19.60;50.50;;;;;;5051974;28;20424;-57
2024/01/18 00:32:19;;;;;;;8.57;4.82;;;19.60;50.30;;;;;;5033896;28;20387;-58
2024/01/18 00:34:45;;;;;;;8.63;4.57;;;19.60;50.70;;;;;;5051495;28;20179;-57
2024/01/18 00:37:11;;;;;;;11.35;4.32;;;19.60;51.00;;;;;;5051557;28;20061;-57
2024/01/18 00:39:41;;;;;;;8.63;4.88;;;19.60;50.70;;;;;;5051852;28;20442;-57
2024/01/18 00:42:07;;;;;;;8.75;4.30;;;19.60;50.60;;;;;;5051751;28;20033;-58
2024/01/18 00:44:33;;;;;;;12.90;3.90;;;19.60;51.00;;;;;;5051361;28;20159;-58
2024/01/18 00:46:59;;;;;;;12.60;4.30;;;19.60;50.70;;;;;;5051754;28;20423;-55
2024/01/18 00:49:24;;;;;;;8.73;3.70;;;19.60;51.30;;;;;;5051734;28;20112;-55
2024/01/18 00:51:50;;;;;;;9.20;4.60;;;19.60;50.80;;;;;;5051743;28;20025;-56
2024/01/18 00:54:16;;;;;;;8.93;4.30;;;19.60;50.60;;;;;;5051487;28;20025;-56
2024/01/18 00:56:42;;;;;;;11.23;4.20;;;19.60;51.10;;;;;;5051638;28;20035;-54
2024/01/18 00:59:08;;;;;;;10.38;4.70;;;19.60;51.10;;;;;;5051622;28;20380;-55
2024/01/18 01:01:34;;;;;;;8.07;4.30;;;19.60;50.90;;;;;;5017338;28;20032;-55
2024/01/18 01:04:00;;;;;;;10.13;4.47;;;19.60;50.80;;;;;;5051605;28;20025;-57
2024/01/18 01:06:25;;;;;;;9.85;3.92;;;19.60;51.00;;;;;;5033627;28;20105;-56
2024/01/18 01:08:51;;;;;;;13.68;4.68;;;19.60;50.70;;;;;;5051481;28;20108;-55
2024/01/18 01:11:17;;;;;;;9.93;4.15;;;19.60;51.40;;;;;;5051445;28;20470;-52
2024/01/18 01:13:44;;;;;;;9.68;3.90;;;19.60;50.50;;;;;;5051116;28;20025;-58
2024/01/18 01:16:11;;;;;;;9.43;4.15;;;19.70;50.80;;;;;;5051358;28;20030;-58
2024/01/18 01:18:37;;;;;;;11.30;4.05;;;19.70;50.50;;;;;;5051214;28;20039;-55
2024/01/18 01:21:06;;;;;;;20.88;5.03;;;19.60;50.80;;;;;;5051341;28;20033;-55
2024/01/18 01:23:32;;;;;;;13.23;4.28;;;19.70;50.80;;;;;;5051051;28;20029;-57
2024/01/18 01:25:58;;;;;;;12.23;3.97;;;19.70;50.30;;;;;;5051285;28;20032;-56
2024/01/18 01:28:24;;;;;;;8.13;4.00;;;19.70;50.60;;;;;;5051367;28;20105;-55
2024/01/18 01:30:49;;;;;;;12.90;4.90;;;19.60;51.10;;;;;;5051584;28;20100;-58
2024/01/18 01:33:15;;;;;;;11.68;3.92;;;19.70;50.50;;;;;;5050982;28;20029;-58
2024/01/18 01:35:41;;;;;;;11.85;4.20;;;19.70;51.00;;;;;;5051236;28;20028;-58
2024/01/18 01:38:07;;;;;;;10.25;4.00;;;19.70;51.30;;;;;;5051218;28;20519;-58
2024/01/18 01:40:33;;;;;;;9.75;3.67;;;19.70;50.90;;;;;;5051332;28;20496;-58
2024/01/18 01:42:58;;;;;;;8.43;3.80;;;19.60;51.00;;;;;;5050647;28;20032;-58
2024/01/18 01:45:24;;;;;;;12.10;4.05;;;19.60;51.20;;;;;;5051078;28;20025;-58
2024/01/18 01:47:51;;;;;;;7.15;3.80;;;19.60;51.00;;;;;;5051151;28;20523;-58
2024/01/18 01:50:17;;;;;;;7.95;4.00;;;19.60;50.80;;;;;;5054039;28;20029;-58
2024/01/18 01:52:43;;;;;;;8.45;3.95;;;19.60;50.80;;;;;;5054565;28;20032;-58
2024/01/18 01:55:12;;;;;;;7.45;3.15;;;19.60;51.20;;;;;;5054771;28;20090;-59
2024/01/18 01:57:39;;;;;;;6.65;3.30;;;19.60;51.30;;;;;;5054642;28;20025;-58
2024/01/18 02:00:06;;;;;;;11.50;4.00;;;19.60;51.00;;;;;;5054715;28;20492;-58
2024/01/18 02:02:38;;;;;;;9.93;3.67;;;19.60;51.50;;;;;;5037296;28;20075;-58
2024/01/18 02:05:05;;;;;;;9.00;3.87;;;19.60;51.30;;;;;;5054592;28;20492;-58
2024/01/18 02:07:31;;;;;;;8.05;3.88;;;19.60;51.20;;;;;;5054604;28;20612;-58
2024/01/18 02:09:57;;;;;;;7.72;3.22;;;19.60;51.00;;;;;;5054621;28;20396;-58
2024/01/18 02:12:25;;;;;;;8.85;4.10;;;19.60;50.90;;;;;;5054338;28;20036;-58
2024/01/18 02:14:51;;;;;;;10.43;3.70;;;19.60;51.00;;;;;;5054246;28;20553;-58
2024/01/18 02:17:17;;;;;;;10.65;3.97;;;19.60;50.50;;;;;;5053855;28;20032;-56
2024/01/18 02:19:42;;;;;;;9.65;3.88;;;19.60;50.40;;;;;;5054441;28;20116;-58
2024/01/18 02:22:11;;;;;;;16.95;4.10;;;19.60;50.60;;;;;;5054273;28;20048;-58
2024/01/18 02:24:45;;;;;;;6.65;3.35;;;19.60;50.60;;;;;;5053854;28;20127;-57
2024/01/18 02:27:10;;;;;;;14.13;3.88;;;19.60;50.90;;;;;;5054152;28;20446;-57
2024/01/18 02:29:37;;;;;;;6.75;3.15;;;19.60;51.10;;;;;;5054176;28;20036;-58
2024/01/18 02:32:03;;;;;;;9.43;3.85;;;19.50;51.10;;;;;;5054134;28;20090;-58
2024/01/18 02:34:29;;;;;;;12.40;3.75;;;19.60;51.90;;;;;;5053841;28;20037;-55
2024/01/18 02:36:55;;;;;;;10.60;3.70;;;19.50;52.20;;;;;;5054056;28;20033;-54
2024/01/18 02:39:21;;;;;;;9.02;3.63;;;19.50;51.50;;;;;;5054058;28;20040;-54
2024/01/18 02:41:47;;;;;;;12.23;3.35;;;19.50;51.30;;;;;;5053776;28;20140;-56
2024/01/18 02:44:14;;;;;;;13.35;3.55;;;19.60;51.40;;;;;;5053523;28;20103;-58
2024/01/18 02:46:40;;;;;;;8.05;3.63;;;19.60;50.70;;;;;;5053954;28;20028;-58
2024/01/18 02:49:06;;;;;;;8.13;3.40;;;19.60;51.10;;;;;;5053866;28;20020;-57
2024/01/18 02:51:32;;;;;;;10.40;3.33;;;19.60;51.50;;;;;;5053824;28;20487;-58
2024/01/18 02:53:58;;;;;;;7.65;3.40;;;19.60;50.80;;;;;;5053503;28;20096;-58
2024/01/18 02:56:24;;;;;;;7.30;3.28;;;19.60;51.80;;;;;;5053672;28;20043;-58
2024/01/18 02:58:50;;;;;;;6.93;3.33;;;19.50;51.30;;;;;;5053728;28;20372;-58
2024/01/18 03:01:16;;;;;;;7.65;3.50;;;19.50;50.60;;;;;;5053648;28;20032;-58
2024/01/18 03:03:42;;;;;;;7.70;3.40;;;19.50;51.60;;;;;;5053409;28;20036;-58
2024/01/18 03:06:07;;;;;;;7.97;3.70;;;19.50;51.10;;;;;;5053525;28;20043;-58
2024/01/18 03:08:34;;;;;;;7.55;3.38;;;19.50;51.10;;;;;;5053501;28;20036;-58
2024/01/18 03:11:00;;;;;;;10.35;3.33;;;19.50;51.40;;;;;;5053263;28;20396;-58
2024/01/18 03:13:25;;;;;;;8.02;3.22;;;19.50;51.20;;;;;;5053064;28;20029;-58
2024/01/18 03:15:52;;;;;;;8.80;3.50;;;19.50;51.20;;;;;;5053233;28;20025;-58
2024/01/18 03:18:17;;;;;;;6.75;3.28;;;19.40;50.50;;;;;;5053338;28;20115;-58
2024/01/18 03:20:43;;;;;;;6.90;3.35;;;19.50;51.10;;;;;;5053212;28;20132;-59
2024/01/18 03:23:09;;;;;;;8.07;3.35;;;19.50;51.10;;;;;;5052856;28;20522;-58
2024/01/18 03:25:35;;;;;;;9.45;3.95;;;19.40;50.60;;;;;;5086942;22;20496;-47
2024/01/18 03:28:00;;;;;;;5.75;3.45;;;19.40;50.00;;;;;;5072950;28;20535;-53
2024/01/18 03:30:26;;;;;;;7.32;4.05;;;19.50;50.30;;;;;;5073088;28;20029;-49
2024/01/18 03:32:52;;;;;;;5.30;3.72;;;19.50;50.20;;;;;;5072658;28;20104;-48
2024/01/18 03:35:18;;;;;;;7.25;3.20;;;19.40;50.50;;;;;;5072841;28;20028;-49
2024/01/18 03:37:44;;;;;;;9.80;3.40;;;19.50;50.80;;;;;;5072826;28;20032;-51
2024/01/18 03:40:10;;;;;;;6.05;3.30;;;19.50;50.60;;;;;;5073039;28;20037;-54
2024/01/18 03:42:41;;;;;;;8.95;3.45;;;19.40;50.70;;;;;;5072314;28;20028;-48
2024/01/18 03:45:07;;;;;;;8.43;3.50;;;19.50;50.80;;;;;;5072661;28;20032;-51
2024/01/18 03:47:33;;;;;;;7.95;3.22;;;19.50;50.60;;;;;;5072570;28;20072;-48
2024/01/18 03:49:59;;;;;;;8.68;3.50;;;19.50;50.80;;;;;;5072816;28;20052;-53
2024/01/18 03:52:25;;;;;;;20.25;3.60;;;19.50;50.60;;;;;;5072482;28;20024;-48
2024/01/18 03:54:50;;;;;;;7.40;3.47;;;19.50;51.00;;;;;;5072335;28;20090;-48
2024/01/18 03:57:16;;;;;;;7.32;3.47;;;19.50;50.60;;;;;;5072503;28;20365;-50
2024/01/18 03:59:45;;;;;;;5.55;3.38;;;19.50;50.40;;;;;;5072469;28;20148;-48
2024/01/18 04:02:11;;;;;;;8.80;3.72;;;19.50;50.50;;;;;;5072319;28;20024;-49
2024/01/18 04:04:36;;;;;;;12.15;3.58;;;19.50;50.50;;;;;;5072396;28;20032;-51
2024/01/18 04:07:02;;;;;;;7.93;3.33;;;19.50;50.50;;;;;;5072337;28;20085;-52
2024/01/18 04:09:28;;;;;;;6.30;3.10;;;19.50;50.30;;;;;;5054539;28;20029;-47
2024/01/18 04:11:54;;;;;;;7.65;3.30;;;19.50;50.60;;;;;;5072136;28;20099;-51
2024/01/18 04:14:20;;;;;;;7.05;3.47;;;19.50;50.20;;;;;;5071817;28;20483;-46
2024/01/18 04:16:46;;;;;;;7.03;3.50;;;19.50;50.50;;;;;;5072184;28;20121;-46
2024/01/18 04:19:12;;;;;;;7.15;3.30;;;19.50;50.40;;;;;;5072157;28;20114;-55
2024/01/18 04:21:38;;;;;;;8.95;3.38;;;19.50;50.60;;;;;;5054300;28;20074;-46
2024/01/18 04:24:05;;;;;;;8.02;3.28;;;19.50;50.30;;;;;;5071595;28;20028;-49
2024/01/18 04:26:33;;;;;;;6.90;3.05;;;19.50;50.60;;;;;;5071906;28;20115;-52
2024/01/18 04:29:00;;;;;;;6.07;3.78;;;19.50;50.30;;;;;;5072002;28;20020;-48
2024/01/18 04:31:26;;;;;;;6.65;3.20;;;19.50;50.70;;;;;;5071965;28;20420;-50
2024/01/18 04:33:53;;;;;;;6.90;3.53;;;19.50;50.40;;;;;;5071595;28;20032;-49
2024/01/18 04:36:19;;;;;;;8.15;3.70;;;19.50;50.10;;;;;;5071905;28;20021;-49
2024/01/18 04:38:45;;;;;;;8.23;3.47;;;19.50;50.10;;;;;;5071901;28;20033;-47
2024/01/18 04:41:11;;;;;;;8.35;3.78;;;19.50;50.90;;;;;;5071834;28;20407;-52
2024/01/18 04:43:37;;;;;;;5.72;3.45;;;19.50;50.10;;;;;;5071370;28;20490;-49
2024/01/18 04:46:04;;;;;;;6.80;3.50;;;19.50;50.00;;;;;;5071735;28;20032;-48
2024/01/18 04:48:31;;;;;;;8.07;3.45;;;19.50;49.80;;;;;;5071715;28;20028;-47
2024/01/18 04:50:57;;;;;;;9.52;3.90;;;19.50;49.60;;;;;;5071683;28;20048;-48
2024/01/18 04:53:23;;;;;;;7.45;4.28;;;19.50;50.20;;;;;;5071280;28;20029;-55
2024/01/18 04:55:50;;;;;;;6.50;3.53;;;19.50;49.50;;;;;;5071566;28;20116;-53
2024/01/18 04:58:16;;;;;;;7.95;3.72;;;19.40;49.70;;;;;;5071546;28;20036;-52
2024/01/18 05:00:42;;;;;;;6.47;3.75;;;19.50;49.60;;;;;;5071631;28;20069;-51
2024/01/18 05:03:08;;;;;;;9.52;3.97;;;19.50;49.60;;;;;;5071239;28;20115;-53
2024/01/18 05:05:35;;;;;;;9.85;4.00;;;19.50;49.50;;;;;;5071587;28;20033;-52
2024/01/18 05:08:01;;;;;;;7.38;3.60;;;19.50;49.60;;;;;;5071438;28;20025;-49
2024/01/18 05:10:27;;;;;;;7.00;3.55;;;19.50;49.50;;;;;;5071504;28;20101;-48
2024/01/18 05:12:53;;;;;;;9.45;3.50;;;19.50;49.60;;;;;;5071070;28;20025;-50
2024/01/18 05:15:19;;;;;;;6.95;3.97;;;19.50;49.70;;;;;;5071421;28;20029;-48
2024/01/18 05:17:46;;;;;;;7.47;3.47;;;19.50;49.60;;;;;;5071392;28;20040;-48
2024/01/18 05:20:12;;;;;;;6.72;3.50;;;19.50;49.60;;;;;;5053516;28;20040;-46
2024/01/18 05:22:38;;;;;;;5.70;3.50;;;19.50;49.30;;;;;;5070978;28;20031;-47
2024/01/18 05:25:05;;;;;;;6.80;3.38;;;19.50;49.80;;;;;;5074008;28;20388;-50
2024/01/18 05:27:31;;;;;;;9.18;4.05;;;19.50;49.60;;;;;;5075307;28;20025;-46
2024/01/18 05:29:57;;;;;;;8.02;3.70;;;19.50;49.60;;;;;;5075323;28;20064;-52
2024/01/18 05:32:23;;;;;;;6.57;3.47;;;19.50;49.30;;;;;;5075404;28;20435;-50
2024/01/18 05:34:50;;;;;;;7.35;3.70;;;19.50;49.60;;;;;;5074986;28;20025;-46
2024/01/18 05:37:16;;;;;;;7.93;3.83;;;19.50;49.80;;;;;;5075176;28;20032;-47
2024/01/18 05:39:42;;;;;;;5.88;3.50;;;19.50;49.70;;;;;;5075172;28;20036;-46
2024/01/18 05:42:08;;;;;;;8.30;3.83;;;19.50;49.50;;;;;;5074967;28;20120;-51
2024/01/18 05:44:35;;;;;;;9.85;4.10;;;19.50;49.70;;;;;;5074688;28;20175;-48
2024/01/18 05:47:01;;;;;;;8.55;3.95;;;19.50;50.50;;;;;;5075025;28;20020;-50
2024/01/18 05:49:26;;;;;;;9.93;4.10;;;19.50;50.30;;;;;;5074935;28;20033;-49
2024/01/18 05:51:52;;;;;;;8.60;3.83;;;19.50;49.60;;;;;;5074822;28;20112;-50
2024/01/18 05:54:18;;;;;;;8.55;3.95;;;19.50;50.20;;;;;;5074589;28;20032;-54
2024/01/18 05:56:46;;;;;;;9.25;4.18;;;19.50;49.80;;;;;;5074725;28;20029;-48
2024/01/18 05:59:13;;;;;;;8.52;4.05;;;19.50;49.60;;;;;;5056974;28;20423;-49
2024/01/18 06:01:38;;;;;;;7.13;3.97;;;19.50;49.40;;;;;;5074774;28;20048;-49
2024/01/18 06:04:04;;;;;;;7.95;3.90;;;19.40;49.70;;;;;;5056594;28;20076;-56
2024/01/18 06:06:33;;;;;;;8.30;3.70;;;19.40;49.70;;;;;;5074511;28;20027;-56
2024/01/18 06:08:59;;;;;;;9.63;4.05;;;19.40;49.80;;;;;;5074561;28;20446;-56
2024/01/18 06:11:25;;;;;;;8.70;3.85;;;19.40;49.70;;;;;;5074618;28;20108;-57
2024/01/18 06:13:51;;;;;;;8.38;4.40;;;19.40;49.60;;;;;;5056259;28;20027;-57
2024/01/18 06:16:17;;;;;;;8.80;4.18;;;19.40;49.60;;;;;;5074438;28;20028;-56
2024/01/18 06:18:44;;;;;;;7.03;4.25;;;19.40;49.30;;;;;;5074396;28;20032;-54
2024/01/18 06:21:10;;;;;;;7.63;3.83;;;19.40;49.60;;;;;;5074403;28;20103;-49
2024/01/18 06:23:36;;;;;;;9.32;4.32;;;19.40;49.50;;;;;;5074003;28;20108;-51
2024/01/18 06:26:03;;;;;;;7.88;3.75;;;19.40;49.70;;;;;;5074234;28;20052;-57
2024/01/18 06:28:29;;;;;;;8.55;3.65;;;19.40;49.90;;;;;;5074304;28;20056;-57
2024/01/18 06:30:55;;;;;;;9.43;4.55;;;19.40;49.70;;;;;;5074405;28;20067;-57
2024/01/18 06:33:21;;;;;;;8.65;4.25;;;19.40;49.30;;;;;;5073862;28;20056;-56
2024/01/18 06:35:47;;;;;;;10.32;4.10;;;19.40;49.40;;;;;;5073498;28;20526;-56
2024/01/18 06:38:14;;;;;;;6.95;3.60;;;19.40;49.60;;;;;;5074042;28;20538;-54
2024/01/18 06:40:40;;;;;;;8.30;4.35;;;19.50;49.70;;;;;;5074175;28;20388;-53
2024/01/18 06:43:06;;;;;;;8.18;4.43;;;19.40;49.30;;;;;;5055785;28;20033;-54
2024/01/18 06:45:32;;;;;;;7.13;4.35;;;19.40;49.50;;;;;;5073857;28;20404;-54
2024/01/18 06:47:58;;;;;;;9.20;3.90;;;19.40;49.20;;;;;;5073969;28;20054;-54
2024/01/18 06:50:24;;;;;;;8.07;4.43;;;19.40;49.80;;;;;;5073831;28;20029;-55
2024/01/18 06:52:49;;;;;;;9.27;4.28;;;19.40;49.40;;;;;;5074233;28;20028;-54
2024/01/18 06:55:16;;;;;;;7.60;3.83;;;19.40;49.40;;;;;;5073876;28;20514;-54
2024/01/18 06:57:46;;;;;;;9.90;4.57;;;19.40;49.20;;;;;;5073791;28;20473;-49
2024/01/18 07:00:13;;;;;;;9.52;4.28;;;19.40;49.30;;;;;;5073754;28;20460;-51
2024/01/18 07:02:38;;;;;;;8.57;4.38;;;19.40;49.30;;;;;;5073215;28;20032;-48
2024/01/18 07:05:05;;;;;;;6.82;3.92;;;19.40;49.10;;;;;;5073417;28;20101;-48
2024/01/18 07:07:30;;;;;;;7.68;4.05;;;19.40;49.10;;;;;;5073436;28;20447;-52
2024/01/18 07:09:56;;;;;;;7.90;3.95;;;19.40;49.50;;;;;;5073512;28;20047;-47
2024/01/18 07:12:22;;;;;;;10.18;4.32;;;19.50;49.20;;;;;;5073322;28;20107;-46
2024/01/18 07:14:48;;;;;;;9.05;4.70;;;19.40;49.90;;;;;;5073156;28;20032;-51
2024/01/18 07:17:14;;;;;;;6.25;4.00;;;19.40;49.00;;;;;;5073295;28;20033;-54
2024/01/18 07:19:40;;;;;;;14.52;4.20;;;19.50;49.50;;;;;;5055269;28;20032;-53
2024/01/18 07:22:06;;;;;;;8.60;4.20;;;19.50;49.10;;;;;;5072777;28;20079;-52
2024/01/18 07:24:32;;;;;;;9.23;4.10;;;19.50;49.30;;;;;;5071693;28;20032;-56
2024/01/18 07:26:58;;;;;;;7.90;4.13;;;19.50;49.60;;;;;;5072708;28;20052;-56
2024/01/18 07:29:24;;;;;;;9.02;4.32;;;19.50;49.60;;;;;;5072986;28;20017;-55
2024/01/18 07:31:50;;;;;;;14.20;5.45;;;19.50;49.60;;;;;;5072566;28;20025;-53
2024/01/18 07:34:16;;;;;;;12.73;4.38;;;19.50;49.90;;;;;;5056440;28;20074;-55
2024/01/18 07:36:43;;;;;;;9.20;3.92;;;19.50;50.70;;;;;;5072436;28;20033;-53
2024/01/18 07:39:10;;;;;;;14.63;4.53;;;19.50;50.30;;;;;;5073669;28;20492;-50
2024/01/18 07:41:36;;;;;;;10.13;4.22;;;19.50;50.60;;;;;;5072613;28;20101;-55
2024/01/18 07:44:02;;;;;;;17.13;5.53;;;19.60;50.90;;;;;;5072091;28;20141;-54
2024/01/18 07:46:28;;;;;;;28.75;5.05;;;19.50;51.30;;;;;;5071786;28;20537;-53
2024/01/18 07:48:54;;;;;;;24.83;5.72;;;19.50;51.10;;;;;;5072796;28;20025;-50
2024/01/18 07:51:19;;;;;;;36.75;4.80;;;19.50;51.10;;;;;;5072691;28;20033;-55
2024/01/18 07:53:45;;;;;;;18.42;5.00;;;19.50;51.10;;;;;;5071963;28;20044;-54
2024/01/18 07:56:11;;;;;;;21.02;5.35;;;19.60;51.60;;;;;;5071738;28;20037;-52
2024/01/18 23:16:51;;;;;;;9.07;4.30;;;19.10;46.50;;;;;;5080955;27;20431;-58
2024/01/18 23:19:16;;;;;;;8.82;4.10;;;19.10;47.70;;;;;;5082254;28;20028;-57
2024/01/18 23:21:43;;;;;;;8.88;4.15;;;19.10;47.70;;;;;;5066618;28;20078;-57
2024/01/18 23:24:09;;;;;;;12.25;4.40;;;19.10;47.50;;;;;;5084548;28;20429;-59
2024/01/18 23:26:35;;;;;;;7.95;3.85;;;19.20;47.80;;;;;;5076195;28;20487;-52
2024/01/18 23:29:02;;;;;;;12.55;4.10;;;19.20;47.40;;;;;;5070536;28;20553;-59
2024/01/18 23:31:27;;;;;;;11.68;4.30;;;19.20;48.00;;;;;;5097402;22;20391;-56
2024/01/18 23:33:53;;;;;;;7.85;4.03;;;19.20;48.00;;;;;;5064814;28;20082;-57
2024/01/18 23:36:21;;;;;;;9.40;4.20;;;19.20;48.00;;;;;;5060830;28;20127;-54
2024/01/18 23:38:47;;;;;;;16.02;4.20;;;19.20;47.00;;;;;;5074389;28;20032;-55
2024/01/18 23:41:12;;;;;;;11.65;4.10;;;19.20;48.40;;;;;;5070243;28;20410;-50
2024/01/18 23:43:38;;;;;;;9.20;4.03;;;19.30;47.80;;;;;;5084296;28;20107;-51
2024/01/18 23:46:06;;;;;;;9.07;3.72;;;19.30;48.30;;;;;;5084482;28;20102;-50
2024/01/18 23:48:31;;;;;;;10.63;4.10;;;19.30;47.60;;;;;;5048653;28;20487;-49
2024/01/18 23:50:57;;;;;;;11.90;3.63;;;19.30;47.80;;;;;;5067564;28;20028;-54
2024/01/18 23:53:23;;;;;;;10.60;4.18;;;19.40;47.50;;;;;;5068108;28;20024;-52
2024/01/18 23:55:49;;;;;;;12.20;4.22;;;19.40;47.70;;;;;;5067773;28;20391;-54
2024/01/18 23:58:14;;;;;;;8.50;3.38;;;19.30;47.40;;;;;;5068103;28;20033;-53
